sensor_id;sensor_type;location;lat;lon;timestamp;P1;durP1;ratioP1;P2;durP2;ratioP2
18933;SDS011;9599;53.706;10.384;2022-12-29T00:00:05;6.90;;;4.30;;
18933;SDS011;9599;53.706;10.384;2022-12-29T00:02:41;4.97;;;4.00;;
18933;SDS011;9599;53.706;10.384;2022-12-29T00:05:09;5.20;;;4.13;;
18933;SDS011;9599;53.706;10.384;2022-12-29T00:07:37;4.97;;;4.23;;
18933;SDS011;9599;53.706;10.384;2022-12-29T00:10:06;4.60;;;3.97;;
18933;SDS011;9599;53.706;10.384;2022-12-29T00:12:34;5.53;;;4.27;;
18933;SDS011;9599;53.706;10.384;2022-12-29T00:15:19;5.40;;;4.40;;
18933;SDS011;9599;53.706;10.384;2022-12-29T00:18:06;6.20;;;4.20;;
18933;SDS011;9599;53.706;10.384;2022-12-29T00:20:34;5.73;;;4.40;;
18933;SDS011;9599;53.706;10.384;2022-12-29T00:23:20;5.13;;;4.37;;
18933;SDS011;9599;53.706;10.384;2022-12-29T00:26:09;5.27;;;4.60;;
18933;SDS011;9599;53.706;10.384;2022-12-29T00:28:58;7.50;;;5.10;;
18933;SDS011;9599;53.706;10.384;2022-12-29T00:31:52;5.83;;;5.00;;
18933;SDS011;9599;53.706;10.384;2022-12-29T00:34:39;6.13;;;4.83;;
18933;SDS011;9599;53.706;10.384;2022-12-29T00:37:25;7.80;;;5.10;;
18933;SDS011;9599;53.706;10.384;2022-12-29T00:40:07;7.03;;;4.97;;
18933;SDS011;9599;53.706;10.384;2022-12-29T00:42:53;6.37;;;4.80;;
18933;SDS011;9599;53.706;10.384;2022-12-29T00:45:39;6.73;;;5.07;;
18933;SDS011;9599;53.706;10.384;2022-12-29T00:48:07;6.37;;;4.80;;
18933;SDS011;9599;53.706;10.384;2022-12-29T00:50:37;5.70;;;4.77;;
18933;SDS011;9599;53.706;10.384;2022-12-29T00:53:04;5.93;;;4.97;;
18933;SDS011;9599;53.706;10.384;2022-12-29T00:55:35;5.40;;;4.77;;
18933;SDS011;9599;53.706;10.384;2022-12-29T00:58:03;6.03;;;4.93;;
18933;SDS011;9599;53.706;10.384;2022-12-29T01:00:32;5.70;;;4.77;;
18933;SDS011;9599;53.706;10.384;2022-12-29T01:03:00;6.20;;;5.17;;
18933;SDS011;9599;53.706;10.384;2022-12-29T01:05:28;5.67;;;4.90;;
18933;SDS011;9599;53.706;10.384;2022-12-29T01:07:57;5.97;;;5.37;;
18933;SDS011;9599;53.706;10.384;2022-12-29T01:10:25;5.77;;;5.13;;
18933;SDS011;9599;53.706;10.384;2022-12-29T01:12:52;8.43;;;4.67;;
18933;SDS011;9599;53.706;10.384;2022-12-29T01:15:20;5.40;;;4.70;;
18933;SDS011;9599;53.706;10.384;2022-12-29T01:17:48;6.23;;;5.00;;
18933;SDS011;9599;53.706;10.384;2022-12-29T01:20:16;5.63;;;4.90;;
18933;SDS011;9599;53.706;10.384;2022-12-29T01:22:45;5.83;;;4.60;;
18933;SDS011;9599;53.706;10.384;2022-12-29T01:25:15;6.87;;;4.90;;
18933;SDS011;9599;53.706;10.384;2022-12-29T01:27:43;5.87;;;4.80;;
18933;SDS011;9599;53.706;10.384;2022-12-29T01:30:11;7.00;;;5.20;;
18933;SDS011;9599;53.706;10.384;2022-12-29T01:32:40;6.77;;;4.57;;
18933;SDS011;9599;53.706;10.384;2022-12-29T01:35:07;6.47;;;4.90;;
18933;SDS011;9599;53.706;10.384;2022-12-29T01:37:36;6.30;;;5.00;;
18933;SDS011;9599;53.706;10.384;2022-12-29T01:40:05;5.43;;;4.87;;
18933;SDS011;9599;53.706;10.384;2022-12-29T01:42:34;5.77;;;4.60;;
18933;SDS011;9599;53.706;10.384;2022-12-29T01:45:03;6.73;;;4.70;;
18933;SDS011;9599;53.706;10.384;2022-12-29T01:47:36;6.77;;;5.00;;
18933;SDS011;9599;53.706;10.384;2022-12-29T01:50:09;6.57;;;5.20;;
18933;SDS011;9599;53.706;10.384;2022-12-29T01:52:45;6.10;;;4.53;;
18933;SDS011;9599;53.706;10.384;2022-12-29T01:55:21;6.23;;;4.93;;
18933;SDS011;9599;53.706;10.384;2022-12-29T01:57:51;6.13;;;5.27;;
18933;SDS011;9599;53.706;10.384;2022-12-29T02:00:22;6.07;;;5.13;;
18933;SDS011;9599;53.706;10.384;2022-12-29T02:02:51;7.43;;;5.57;;
18933;SDS011;9599;53.706;10.384;2022-12-29T02:05:23;7.27;;;5.33;;
18933;SDS011;9599;53.706;10.384;2022-12-29T02:07:55;7.00;;;5.50;;
18933;SDS011;9599;53.706;10.384;2022-12-29T02:10:23;6.37;;;5.53;;
18933;SDS011;9599;53.706;10.384;2022-12-29T02:12:56;7.40;;;5.67;;
18933;SDS011;9599;53.706;10.384;2022-12-29T02:15:26;6.60;;;5.27;;
18933;SDS011;9599;53.706;10.384;2022-12-29T02:18:06;7.57;;;5.33;;
18933;SDS011;9599;53.706;10.384;2022-12-29T02:23:57;7.30;;;5.30;;
18933;SDS011;9599;53.706;10.384;2022-12-29T02:26:46;6.60;;;5.67;;
18933;SDS011;9599;53.706;10.384;2022-12-29T02:29:48;6.43;;;5.53;;
18933;SDS011;9599;53.706;10.384;2022-12-29T02:32:32;6.93;;;5.77;;
18933;SDS011;9599;53.706;10.384;2022-12-29T02:35:08;7.53;;;6.00;;
18933;SDS011;9599;53.706;10.384;2022-12-29T02:37:41;7.13;;;5.90;;
18933;SDS011;9599;53.706;10.384;2022-12-29T02:40:16;8.30;;;6.60;;
18933;SDS011;9599;53.706;10.384;2022-12-29T02:42:55;8.33;;;5.63;;
18933;SDS011;9599;53.706;10.384;2022-12-29T02:45:31;7.50;;;6.00;;
18933;SDS011;9599;53.706;10.384;2022-12-29T02:48:07;8.57;;;6.10;;
18933;SDS011;9599;53.706;10.384;2022-12-29T02:50:40;6.80;;;6.10;;
18933;SDS011;9599;53.706;10.384;2022-12-29T02:53:15;7.73;;;5.83;;
18933;SDS011;9599;53.706;10.384;2022-12-29T02:56:06;6.40;;;5.30;;
18933;SDS011;9599;53.706;10.384;2022-12-29T02:58:33;7.40;;;5.80;;
18933;SDS011;9599;53.706;10.384;2022-12-29T03:01:04;5.90;;;5.30;;
18933;SDS011;9599;53.706;10.384;2022-12-29T03:03:48;7.17;;;5.50;;
18933;SDS011;9599;53.706;10.384;2022-12-29T03:06:29;6.10;;;5.30;;
18933;SDS011;9599;53.706;10.384;2022-12-29T03:09:04;7.17;;;5.43;;
18933;SDS011;9599;53.706;10.384;2022-12-29T03:11:46;6.30;;;5.17;;
18933;SDS011;9599;53.706;10.384;2022-12-29T03:14:39;6.47;;;5.23;;
18933;SDS011;9599;53.706;10.384;2022-12-29T03:17:38;5.40;;;4.87;;
18933;SDS011;9599;53.706;10.384;2022-12-29T03:20:14;6.67;;;5.23;;
18933;SDS011;9599;53.706;10.384;2022-12-29T03:22:49;6.50;;;5.00;;
18933;SDS011;9599;53.706;10.384;2022-12-29T03:25:23;7.47;;;5.20;;
18933;SDS011;9599;53.706;10.384;2022-12-29T03:27:57;5.87;;;4.90;;
18933;SDS011;9599;53.706;10.384;2022-12-29T03:30:32;5.77;;;4.70;;
18933;SDS011;9599;53.706;10.384;2022-12-29T03:33:04;6.27;;;4.80;;
18933;SDS011;9599;53.706;10.384;2022-12-29T03:35:38;5.63;;;4.90;;
18933;SDS011;9599;53.706;10.384;2022-12-29T03:38:11;5.93;;;4.90;;
18933;SDS011;9599;53.706;10.384;2022-12-29T03:40:45;5.43;;;4.70;;
18933;SDS011;9599;53.706;10.384;2022-12-29T03:43:19;6.17;;;4.60;;
18933;SDS011;9599;53.706;10.384;2022-12-29T03:45:48;6.27;;;5.10;;
18933;SDS011;9599;53.706;10.384;2022-12-29T03:48:16;8.60;;;5.03;;
18933;SDS011;9599;53.706;10.384;2022-12-29T03:50:47;5.73;;;4.73;;
18933;SDS011;9599;53.706;10.384;2022-12-29T03:53:16;6.20;;;4.73;;
18933;SDS011;9599;53.706;10.384;2022-12-29T03:55:44;6.13;;;5.00;;
18933;SDS011;9599;53.706;10.384;2022-12-29T03:58:12;8.10;;;4.80;;
18933;SDS011;9599;53.706;10.384;2022-12-29T04:00:57;4.90;;;4.40;;
18933;SDS011;9599;53.706;10.384;2022-12-29T04:03:25;5.30;;;4.37;;
18933;SDS011;9599;53.706;10.384;2022-12-29T04:05:54;5.43;;;4.60;;
18933;SDS011;9599;53.706;10.384;2022-12-29T04:08:24;6.00;;;4.23;;
18933;SDS011;9599;53.706;10.384;2022-12-29T04:10:51;5.30;;;4.80;;
18933;SDS011;9599;53.706;10.384;2022-12-29T04:13:21;4.60;;;4.20;;
18933;SDS011;9599;53.706;10.384;2022-12-29T04:15:51;5.50;;;4.43;;
18933;SDS011;9599;53.706;10.384;2022-12-29T04:18:19;5.20;;;4.67;;
18933;SDS011;9599;53.706;10.384;2022-12-29T04:20:47;4.77;;;3.90;;
18933;SDS011;9599;53.706;10.384;2022-12-29T04:23:29;5.23;;;4.10;;
18933;SDS011;9599;53.706;10.384;2022-12-29T04:25:59;4.90;;;4.30;;
18933;SDS011;9599;53.706;10.384;2022-12-29T04:28:28;5.57;;;3.40;;
18933;SDS011;9599;53.706;10.384;2022-12-29T04:30:56;4.30;;;3.83;;
18933;SDS011;9599;53.706;10.384;2022-12-29T04:33:34;4.10;;;3.60;;
18933;SDS011;9599;53.706;10.384;2022-12-29T04:36:02;4.53;;;3.83;;
18933;SDS011;9599;53.706;10.384;2022-12-29T04:38:32;3.70;;;3.17;;
18933;SDS011;9599;53.706;10.384;2022-12-29T04:41:02;3.50;;;3.10;;
18933;SDS011;9599;53.706;10.384;2022-12-29T04:43:33;4.40;;;3.10;;
18933;SDS011;9599;53.706;10.384;2022-12-29T04:46:03;3.27;;;2.90;;
18933;SDS011;9599;53.706;10.384;2022-12-29T04:48:50;3.13;;;2.77;;
18933;SDS011;9599;53.706;10.384;2022-12-29T04:51:39;3.20;;;2.90;;
18933;SDS011;9599;53.706;10.384;2022-12-29T04:54:10;3.97;;;2.73;;
18933;SDS011;9599;53.706;10.384;2022-12-29T04:56:38;3.63;;;2.90;;
18933;SDS011;9599;53.706;10.384;2022-12-29T04:59:06;3.30;;;3.00;;
18933;SDS011;9599;53.706;10.384;2022-12-29T05:01:34;3.03;;;2.77;;
18933;SDS011;9599;53.706;10.384;2022-12-29T05:04:03;3.00;;;2.60;;
18933;SDS011;9599;53.706;10.384;2022-12-29T05:06:31;3.57;;;2.80;;
18933;SDS011;9599;53.706;10.384;2022-12-29T05:09:00;3.30;;;3.00;;
18933;SDS011;9599;53.706;10.384;2022-12-29T05:11:29;3.00;;;2.70;;
18933;SDS011;9599;53.706;10.384;2022-12-29T05:13:58;3.40;;;2.50;;
18933;SDS011;9599;53.706;10.384;2022-12-29T05:16:26;2.47;;;2.27;;
18933;SDS011;9599;53.706;10.384;2022-12-29T05:18:54;3.00;;;2.70;;
18933;SDS011;9599;53.706;10.384;2022-12-29T05:21:22;3.47;;;2.60;;
18933;SDS011;9599;53.706;10.384;2022-12-29T05:23:50;2.80;;;2.60;;
18933;SDS011;9599;53.706;10.384;2022-12-29T05:26:18;2.77;;;2.40;;
18933;SDS011;9599;53.706;10.384;2022-12-29T05:28:57;3.40;;;2.50;;
18933;SDS011;9599;53.706;10.384;2022-12-29T05:31:26;2.50;;;2.30;;
18933;SDS011;9599;53.706;10.384;2022-12-29T05:33:54;2.80;;;2.20;;
18933;SDS011;9599;53.706;10.384;2022-12-29T05:36:22;2.43;;;2.23;;
18933;SDS011;9599;53.706;10.384;2022-12-29T05:38:56;2.60;;;2.37;;
18933;SDS011;9599;53.706;10.384;2022-12-29T05:41:24;3.07;;;2.77;;
18933;SDS011;9599;53.706;10.384;2022-12-29T05:43:59;2.60;;;2.40;;
18933;SDS011;9599;53.706;10.384;2022-12-29T05:46:32;2.60;;;2.40;;
18933;SDS011;9599;53.706;10.384;2022-12-29T05:49:23;2.83;;;2.50;;
18933;SDS011;9599;53.706;10.384;2022-12-29T05:52:00;2.80;;;2.60;;
18933;SDS011;9599;53.706;10.384;2022-12-29T05:54:28;4.67;;;2.80;;
18933;SDS011;9599;53.706;10.384;2022-12-29T05:56:56;4.20;;;3.07;;
18933;SDS011;9599;53.706;10.384;2022-12-29T05:59:26;2.90;;;2.53;;
18933;SDS011;9599;53.706;10.384;2022-12-29T06:01:54;3.20;;;2.90;;
18933;SDS011;9599;53.706;10.384;2022-12-29T06:04:22;3.50;;;3.10;;
18933;SDS011;9599;53.706;10.384;2022-12-29T06:06:51;2.90;;;2.70;;
18933;SDS011;9599;53.706;10.384;2022-12-29T06:09:27;3.57;;;3.27;;
18933;SDS011;9599;53.706;10.384;2022-12-29T06:11:55;2.80;;;2.47;;
18933;SDS011;9599;53.706;10.384;2022-12-29T06:14:25;3.33;;;2.70;;
18933;SDS011;9599;53.706;10.384;2022-12-29T06:16:53;3.20;;;2.90;;
18933;SDS011;9599;53.706;10.384;2022-12-29T06:19:21;3.17;;;2.83;;
18933;SDS011;9599;53.706;10.384;2022-12-29T06:21:49;3.20;;;2.60;;
18933;SDS011;9599;53.706;10.384;2022-12-29T06:24:18;3.30;;;2.80;;
18933;SDS011;9599;53.706;10.384;2022-12-29T06:26:46;2.90;;;2.33;;
18933;SDS011;9599;53.706;10.384;2022-12-29T06:29:16;3.07;;;2.57;;
18933;SDS011;9599;53.706;10.384;2022-12-29T06:31:46;2.87;;;2.43;;
18933;SDS011;9599;53.706;10.384;2022-12-29T06:34:15;3.40;;;2.70;;
18933;SDS011;9599;53.706;10.384;2022-12-29T06:36:43;2.87;;;2.43;;
18933;SDS011;9599;53.706;10.384;2022-12-29T06:39:11;2.60;;;2.40;;
18933;SDS011;9599;53.706;10.384;2022-12-29T06:41:47;3.10;;;2.80;;
18933;SDS011;9599;53.706;10.384;2022-12-29T06:44:34;3.67;;;2.83;;
18933;SDS011;9599;53.706;10.384;2022-12-29T06:47:06;3.57;;;2.73;;
18933;SDS011;9599;53.706;10.384;2022-12-29T06:49:33;4.50;;;2.60;;
18933;SDS011;9599;53.706;10.384;2022-12-29T06:52:02;2.67;;;2.30;;
18933;SDS011;9599;53.706;10.384;2022-12-29T06:54:37;2.83;;;2.27;;
18933;SDS011;9599;53.706;10.384;2022-12-29T06:57:06;2.93;;;2.33;;
18933;SDS011;9599;53.706;10.384;2022-12-29T06:59:34;2.87;;;2.10;;
18933;SDS011;9599;53.706;10.384;2022-12-29T07:02:01;2.70;;;2.30;;
18933;SDS011;9599;53.706;10.384;2022-12-29T07:04:31;3.10;;;2.50;;
18933;SDS011;9599;53.706;10.384;2022-12-29T07:06:59;2.27;;;2.10;;
18933;SDS011;9599;53.706;10.384;2022-12-29T07:09:27;2.63;;;2.20;;
18933;SDS011;9599;53.706;10.384;2022-12-29T07:11:55;2.40;;;2.20;;
18933;SDS011;9599;53.706;10.384;2022-12-29T07:14:23;2.20;;;2.07;;
18933;SDS011;9599;53.706;10.384;2022-12-29T07:16:51;2.30;;;2.10;;
18933;SDS011;9599;53.706;10.384;2022-12-29T07:19:19;2.30;;;2.10;;
18933;SDS011;9599;53.706;10.384;2022-12-29T07:21:48;3.17;;;2.20;;
18933;SDS011;9599;53.706;10.384;2022-12-29T07:24:16;3.53;;;2.00;;
18933;SDS011;9599;53.706;10.384;2022-12-29T07:26:44;2.20;;;2.00;;
18933;SDS011;9599;53.706;10.384;2022-12-29T07:29:13;2.00;;;1.90;;
18933;SDS011;9599;53.706;10.384;2022-12-29T07:31:40;2.90;;;1.90;;
18933;SDS011;9599;53.706;10.384;2022-12-29T07:34:08;2.60;;;2.10;;
18933;SDS011;9599;53.706;10.384;2022-12-29T07:36:36;2.20;;;2.00;;
18933;SDS011;9599;53.706;10.384;2022-12-29T07:39:06;2.30;;;1.93;;
18933;SDS011;9599;53.706;10.384;2022-12-29T07:41:34;2.77;;;2.20;;
18933;SDS011;9599;53.706;10.384;2022-12-29T07:44:02;2.50;;;1.80;;
18933;SDS011;9599;53.706;10.384;2022-12-29T07:46:55;4.00;;;2.13;;
18933;SDS011;9599;53.706;10.384;2022-12-29T07:49:24;2.20;;;2.00;;
18933;SDS011;9599;53.706;10.384;2022-12-29T07:51:52;2.40;;;2.20;;
18933;SDS011;9599;53.706;10.384;2022-12-29T07:54:21;2.23;;;2.03;;
18933;SDS011;9599;53.706;10.384;2022-12-29T07:56:50;2.30;;;2.10;;
18933;SDS011;9599;53.706;10.384;2022-12-29T07:59:18;4.23;;;2.37;;
18933;SDS011;9599;53.706;10.384;2022-12-29T08:01:46;3.07;;;2.40;;
18933;SDS011;9599;53.706;10.384;2022-12-29T08:04:14;3.00;;;2.40;;
18933;SDS011;9599;53.706;10.384;2022-12-29T08:06:42;2.50;;;2.30;;
18933;SDS011;9599;53.706;10.384;2022-12-29T08:09:11;3.33;;;2.37;;
18933;SDS011;9599;53.706;10.384;2022-12-29T08:11:48;3.03;;;2.30;;
18933;SDS011;9599;53.706;10.384;2022-12-29T08:14:16;3.10;;;2.57;;
18933;SDS011;9599;53.706;10.384;2022-12-29T08:16:45;2.77;;;2.23;;
18933;SDS011;9599;53.706;10.384;2022-12-29T08:19:13;5.00;;;2.57;;
18933;SDS011;9599;53.706;10.384;2022-12-29T08:21:41;3.43;;;2.40;;
18933;SDS011;9599;53.706;10.384;2022-12-29T08:24:09;2.57;;;2.30;;
18933;SDS011;9599;53.706;10.384;2022-12-29T08:26:37;2.87;;;2.50;;
18933;SDS011;9599;53.706;10.384;2022-12-29T08:29:07;3.30;;;2.30;;
18933;SDS011;9599;53.706;10.384;2022-12-29T08:31:35;3.27;;;2.30;;
18933;SDS011;9599;53.706;10.384;2022-12-29T08:34:03;3.70;;;1.90;;
18933;SDS011;9599;53.706;10.384;2022-12-29T08:36:31;2.53;;;2.10;;
18933;SDS011;9599;53.706;10.384;2022-12-29T08:38:59;2.00;;;1.83;;
18933;SDS011;9599;53.706;10.384;2022-12-29T08:41:28;1.93;;;1.60;;
18933;SDS011;9599;53.706;10.384;2022-12-29T08:43:56;2.30;;;1.83;;
18933;SDS011;9599;53.706;10.384;2022-12-29T08:46:25;2.00;;;1.70;;
18933;SDS011;9599;53.706;10.384;2022-12-29T08:48:53;3.20;;;1.90;;
18933;SDS011;9599;53.706;10.384;2022-12-29T08:51:21;2.20;;;2.00;;
18933;SDS011;9599;53.706;10.384;2022-12-29T08:53:50;2.23;;;2.03;;
18933;SDS011;9599;53.706;10.384;2022-12-29T08:56:19;3.07;;;2.17;;
18933;SDS011;9599;53.706;10.384;2022-12-29T08:58:50;2.60;;;2.10;;
18933;SDS011;9599;53.706;10.384;2022-12-29T09:01:20;3.97;;;2.27;;
18933;SDS011;9599;53.706;10.384;2022-12-29T09:03:50;2.30;;;2.13;;
18933;SDS011;9599;53.706;10.384;2022-12-29T09:06:40;3.37;;;2.23;;
18933;SDS011;9599;53.706;10.384;2022-12-29T09:09:08;2.77;;;2.33;;
18933;SDS011;9599;53.706;10.384;2022-12-29T09:11:36;2.80;;;2.10;;
18933;SDS011;9599;53.706;10.384;2022-12-29T09:14:04;2.73;;;2.00;;
18933;SDS011;9599;53.706;10.384;2022-12-29T09:16:32;3.00;;;2.10;;
18933;SDS011;9599;53.706;10.384;2022-12-29T09:19:02;3.63;;;2.20;;
18933;SDS011;9599;53.706;10.384;2022-12-29T09:21:30;5.00;;;2.10;;
18933;SDS011;9599;53.706;10.384;2022-12-29T09:23:58;1.93;;;1.73;;
18933;SDS011;9599;53.706;10.384;2022-12-29T09:26:26;4.47;;;2.10;;
18933;SDS011;9599;53.706;10.384;2022-12-29T09:28:54;3.40;;;2.00;;
18933;SDS011;9599;53.706;10.384;2022-12-29T09:31:23;3.60;;;1.90;;
18933;SDS011;9599;53.706;10.384;2022-12-29T09:33:51;3.80;;;2.00;;
18933;SDS011;9599;53.706;10.384;2022-12-29T09:36:20;3.73;;;1.60;;
18933;SDS011;9599;53.706;10.384;2022-12-29T09:38:49;2.80;;;1.57;;
18933;SDS011;9599;53.706;10.384;2022-12-29T09:41:18;4.63;;;1.80;;
18933;SDS011;9599;53.706;10.384;2022-12-29T09:43:57;2.17;;;1.60;;
18933;SDS011;9599;53.706;10.384;2022-12-29T09:46:33;2.70;;;1.40;;
18933;SDS011;9599;53.706;10.384;2022-12-29T09:49:15;3.63;;;1.50;;
18933;SDS011;9599;53.706;10.384;2022-12-29T09:51:52;3.13;;;1.37;;
18933;SDS011;9599;53.706;10.384;2022-12-29T09:54:34;3.40;;;1.50;;
18933;SDS011;9599;53.706;10.384;2022-12-29T09:57:18;2.77;;;1.30;;
18933;SDS011;9599;53.706;10.384;2022-12-29T09:59:51;2.80;;;1.33;;
18933;SDS011;9599;53.706;10.384;2022-12-29T10:02:31;4.20;;;1.43;;
18933;SDS011;9599;53.706;10.384;2022-12-29T10:05:08;3.10;;;1.37;;
18933;SDS011;9599;53.706;10.384;2022-12-29T10:07:48;3.63;;;1.60;;
18933;SDS011;9599;53.706;10.384;2022-12-29T10:10:28;2.20;;;1.30;;
18933;SDS011;9599;53.706;10.384;2022-12-29T10:13:06;4.00;;;1.40;;
18933;SDS011;9599;53.706;10.384;2022-12-29T10:15:52;4.07;;;1.40;;
18933;SDS011;9599;53.706;10.384;2022-12-29T10:18:49;6.53;;;1.70;;
18933;SDS011;9599;53.706;10.384;2022-12-29T10:21:30;2.00;;;1.37;;
18933;SDS011;9599;53.706;10.384;2022-12-29T10:24:11;3.30;;;1.40;;
18933;SDS011;9599;53.706;10.384;2022-12-29T10:26:40;4.00;;;1.60;;
18933;SDS011;9599;53.706;10.384;2022-12-29T10:29:13;3.27;;;1.30;;
18933;SDS011;9599;53.706;10.384;2022-12-29T10:31:45;2.63;;;1.70;;
18933;SDS011;9599;53.706;10.384;2022-12-29T10:34:19;3.93;;;1.40;;
18933;SDS011;9599;53.706;10.384;2022-12-29T10:36:49;5.47;;;1.80;;
18933;SDS011;9599;53.706;10.384;2022-12-29T10:39:25;2.67;;;1.43;;
18933;SDS011;9599;53.706;10.384;2022-12-29T10:42:00;3.07;;;1.20;;
18933;SDS011;9599;53.706;10.384;2022-12-29T10:44:36;5.20;;;1.97;;
18933;SDS011;9599;53.706;10.384;2022-12-29T10:47:06;3.40;;;1.60;;
18933;SDS011;9599;53.706;10.384;2022-12-29T10:49:39;3.37;;;1.60;;
18933;SDS011;9599;53.706;10.384;2022-12-29T10:52:09;3.27;;;1.37;;
18933;SDS011;9599;53.706;10.384;2022-12-29T10:54:42;4.77;;;1.83;;
18933;SDS011;9599;53.706;10.384;2022-12-29T10:57:22;3.10;;;1.43;;
18933;SDS011;9599;53.706;10.384;2022-12-29T10:59:54;4.20;;;1.50;;
18933;SDS011;9599;53.706;10.384;2022-12-29T11:02:25;5.47;;;1.50;;
18933;SDS011;9599;53.706;10.384;2022-12-29T11:05:10;5.47;;;1.63;;
18933;SDS011;9599;53.706;10.384;2022-12-29T11:07:46;3.87;;;1.50;;
18933;SDS011;9599;53.706;10.384;2022-12-29T11:10:17;3.97;;;1.50;;
18933;SDS011;9599;53.706;10.384;2022-12-29T11:12:54;6.83;;;1.63;;
18933;SDS011;9599;53.706;10.384;2022-12-29T11:15:24;4.93;;;1.70;;
18933;SDS011;9599;53.706;10.384;2022-12-29T11:17:52;4.57;;;1.80;;
18933;SDS011;9599;53.706;10.384;2022-12-29T11:20:27;4.73;;;1.70;;
18933;SDS011;9599;53.706;10.384;2022-12-29T11:22:58;4.83;;;1.30;;
18933;SDS011;9599;53.706;10.384;2022-12-29T11:25:28;5.63;;;1.70;;
18933;SDS011;9599;53.706;10.384;2022-12-29T11:27:56;3.80;;;1.33;;
18933;SDS011;9599;53.706;10.384;2022-12-29T11:30:27;7.00;;;1.60;;
18933;SDS011;9599;53.706;10.384;2022-12-29T11:32:57;4.50;;;1.30;;
18933;SDS011;9599;53.706;10.384;2022-12-29T11:35:35;5.17;;;1.30;;
18933;SDS011;9599;53.706;10.384;2022-12-29T11:38:06;4.13;;;1.63;;
18933;SDS011;9599;53.706;10.384;2022-12-29T11:40:47;5.77;;;1.80;;
18933;SDS011;9599;53.706;10.384;2022-12-29T11:43:19;5.80;;;2.20;;
18933;SDS011;9599;53.706;10.384;2022-12-29T11:45:51;2.97;;;1.70;;
18933;SDS011;9599;53.706;10.384;2022-12-29T11:48:20;4.97;;;1.70;;
18933;SDS011;9599;53.706;10.384;2022-12-29T11:50:50;5.77;;;2.47;;
18933;SDS011;9599;53.706;10.384;2022-12-29T11:53:21;4.30;;;2.10;;
18933;SDS011;9599;53.706;10.384;2022-12-29T11:55:54;5.83;;;2.70;;
18933;SDS011;9599;53.706;10.384;2022-12-29T11:58:28;3.27;;;1.27;;
18933;SDS011;9599;53.706;10.384;2022-12-29T12:00:59;3.03;;;1.13;;
18933;SDS011;9599;53.706;10.384;2022-12-29T12:03:30;3.43;;;1.30;;
18933;SDS011;9599;53.706;10.384;2022-12-29T12:06:02;3.10;;;1.10;;
18933;SDS011;9599;53.706;10.384;2022-12-29T12:08:32;4.27;;;1.37;;
18933;SDS011;9599;53.706;10.384;2022-12-29T12:11:06;1.67;;;0.90;;
18933;SDS011;9599;53.706;10.384;2022-12-29T12:13:40;2.20;;;1.10;;
18933;SDS011;9599;53.706;10.384;2022-12-29T12:16:15;4.77;;;1.30;;
18933;SDS011;9599;53.706;10.384;2022-12-29T12:18:49;2.93;;;1.10;;
18933;SDS011;9599;53.706;10.384;2022-12-29T12:21:22;2.73;;;1.07;;
18933;SDS011;9599;53.706;10.384;2022-12-29T12:24:05;2.23;;;1.00;;
18933;SDS011;9599;53.706;10.384;2022-12-29T12:26:57;2.77;;;0.97;;
18933;SDS011;9599;53.706;10.384;2022-12-29T12:29:31;3.07;;;1.10;;
18933;SDS011;9599;53.706;10.384;2022-12-29T12:32:08;3.07;;;1.23;;
18933;SDS011;9599;53.706;10.384;2022-12-29T12:34:43;7.10;;;1.40;;
18933;SDS011;9599;53.706;10.384;2022-12-29T12:37:15;3.00;;;1.20;;
18933;SDS011;9599;53.706;10.384;2022-12-29T12:40:02;3.17;;;1.10;;
18933;SDS011;9599;53.706;10.384;2022-12-29T12:42:45;3.63;;;1.13;;
18933;SDS011;9599;53.706;10.384;2022-12-29T12:45:28;3.40;;;1.10;;
18933;SDS011;9599;53.706;10.384;2022-12-29T12:48:11;3.73;;;2.17;;
18933;SDS011;9599;53.706;10.384;2022-12-29T12:51:01;6.40;;;1.87;;
18933;SDS011;9599;53.706;10.384;2022-12-29T12:53:43;3.90;;;1.33;;
18933;SDS011;9599;53.706;10.384;2022-12-29T12:56:29;3.80;;;1.80;;
18933;SDS011;9599;53.706;10.384;2022-12-29T12:59:24;6.07;;;1.77;;
18933;SDS011;9599;53.706;10.384;2022-12-29T13:02:01;5.10;;;1.63;;
18933;SDS011;9599;53.706;10.384;2022-12-29T13:04:48;4.10;;;1.77;;
18933;SDS011;9599;53.706;10.384;2022-12-29T13:07:30;3.37;;;1.43;;
18933;SDS011;9599;53.706;10.384;2022-12-29T13:10:17;3.57;;;1.40;;
18933;SDS011;9599;53.706;10.384;2022-12-29T13:12:55;2.23;;;1.40;;
18933;SDS011;9599;53.706;10.384;2022-12-29T13:15:41;7.13;;;2.00;;
18933;SDS011;9599;53.706;10.384;2022-12-29T13:18:18;7.33;;;1.60;;
18933;SDS011;9599;53.706;10.384;2022-12-29T13:20:53;3.50;;;1.40;;
18933;SDS011;9599;53.706;10.384;2022-12-29T13:23:30;3.67;;;1.37;;
18933;SDS011;9599;53.706;10.384;2022-12-29T13:26:06;3.63;;;1.40;;
18933;SDS011;9599;53.706;10.384;2022-12-29T13:28:44;4.63;;;1.50;;
18933;SDS011;9599;53.706;10.384;2022-12-29T13:31:20;3.53;;;1.57;;
18933;SDS011;9599;53.706;10.384;2022-12-29T13:33:58;6.07;;;2.43;;
18933;SDS011;9599;53.706;10.384;2022-12-29T13:36:33;5.90;;;1.47;;
18933;SDS011;9599;53.706;10.384;2022-12-29T13:39:08;4.93;;;2.00;;
18933;SDS011;9599;53.706;10.384;2022-12-29T13:41:47;4.00;;;1.80;;
18933;SDS011;9599;53.706;10.384;2022-12-29T13:44:18;3.23;;;2.40;;
18933;SDS011;9599;53.706;10.384;2022-12-29T13:46:51;4.73;;;1.83;;
18933;SDS011;9599;53.706;10.384;2022-12-29T13:49:21;5.70;;;2.27;;
18933;SDS011;9599;53.706;10.384;2022-12-29T13:51:51;4.87;;;1.50;;
18933;SDS011;9599;53.706;10.384;2022-12-29T13:54:25;4.43;;;1.60;;
18933;SDS011;9599;53.706;10.384;2022-12-29T13:57:05;3.87;;;1.60;;
18933;SDS011;9599;53.706;10.384;2022-12-29T13:59:37;5.43;;;1.80;;
18933;SDS011;9599;53.706;10.384;2022-12-29T14:02:17;4.10;;;1.60;;
18933;SDS011;9599;53.706;10.384;2022-12-29T14:04:55;5.83;;;1.90;;
18933;SDS011;9599;53.706;10.384;2022-12-29T14:07:25;7.37;;;2.50;;
18933;SDS011;9599;53.706;10.384;2022-12-29T14:09:54;5.67;;;2.00;;
18933;SDS011;9599;53.706;10.384;2022-12-29T14:12:28;5.17;;;2.07;;
18933;SDS011;9599;53.706;10.384;2022-12-29T14:15:14;7.70;;;3.20;;
18933;SDS011;9599;53.706;10.384;2022-12-29T14:18:03;8.53;;;2.57;;
18933;SDS011;9599;53.706;10.384;2022-12-29T14:20:37;4.17;;;1.73;;
18933;SDS011;9599;53.706;10.384;2022-12-29T14:23:24;9.73;;;2.00;;
18933;SDS011;9599;53.706;10.384;2022-12-29T14:26:00;6.73;;;2.00;;
18933;SDS011;9599;53.706;10.384;2022-12-29T14:28:39;5.23;;;1.50;;
18933;SDS011;9599;53.706;10.384;2022-12-29T14:34:28;6.70;;;2.40;;
18933;SDS011;9599;53.706;10.384;2022-12-29T14:36:58;4.70;;;1.50;;
18933;SDS011;9599;53.706;10.384;2022-12-29T14:39:30;2.97;;;1.27;;
18933;SDS011;9599;53.706;10.384;2022-12-29T14:42:00;9.73;;;4.00;;
18933;SDS011;9599;53.706;10.384;2022-12-29T14:44:31;4.40;;;1.80;;
18933;SDS011;9599;53.706;10.384;2022-12-29T14:47:00;5.23;;;1.40;;
18933;SDS011;9599;53.706;10.384;2022-12-29T14:49:40;3.87;;;1.40;;
18933;SDS011;9599;53.706;10.384;2022-12-29T14:52:14;4.73;;;1.30;;
18933;SDS011;9599;53.706;10.384;2022-12-29T14:54:47;4.87;;;1.40;;
18933;SDS011;9599;53.706;10.384;2022-12-29T14:57:22;6.50;;;1.47;;
18933;SDS011;9599;53.706;10.384;2022-12-29T14:59:56;3.93;;;1.60;;
18933;SDS011;9599;53.706;10.384;2022-12-29T15:02:33;5.50;;;1.40;;
18933;SDS011;9599;53.706;10.384;2022-12-29T15:05:14;4.17;;;1.80;;
18933;SDS011;9599;53.706;10.384;2022-12-29T15:07:52;3.53;;;1.40;;
18933;SDS011;9599;53.706;10.384;2022-12-29T15:10:20;3.80;;;1.20;;
18933;SDS011;9599;53.706;10.384;2022-12-29T15:12:51;6.67;;;1.80;;
18933;SDS011;9599;53.706;10.384;2022-12-29T15:15:21;4.00;;;1.43;;
18933;SDS011;9599;53.706;10.384;2022-12-29T15:17:51;7.10;;;2.07;;
18933;SDS011;9599;53.706;10.384;2022-12-29T15:20:25;5.27;;;1.60;;
18933;SDS011;9599;53.706;10.384;2022-12-29T15:22:55;6.50;;;1.83;;
18933;SDS011;9599;53.706;10.384;2022-12-29T15:25:24;5.83;;;1.67;;
18933;SDS011;9599;53.706;10.384;2022-12-29T15:27:54;4.77;;;1.73;;
18933;SDS011;9599;53.706;10.384;2022-12-29T15:30:24;3.70;;;2.00;;